Alta Lufthavn, Norway

7:24 AM CEST on August 04, 2015 (GMT +0200)
Alta | | Change Station
CLOSE
Current Station
Airport
Location: Alta Lufthavn,
Elevation: 10 ft
Nearby Weather Stations

Elev 10 ft 69.98 °N, 23.36 °E | Updated 34 minutes ago

Light Drizzle
Light Drizzle
54 °F
Feels Like 54 °F
N
9
Wind Variable Wind from North

Today
High -- | Low -- °F
--% Chance of Precip.
Yesterday
High -- | Low -- °F
Precip. -- in
2:14 AM 10:44 PM
Waning Gibbous, 81% visible
Pressure 30.04 in
Visibility 6.2 miles
Clouds Few 1000 ft
Mostly Cloudy 2400 ft
Dew Point 46 °F
Humidity 77%
Rainfall 0.00 in
Snow Depth Not available.
UV 1 out of 12
Pollen Not available.
Air Quality Not available.
Flu Activity Not available.
METAR ENAT 040450Z 36008KT 9999 -DZ FEW010 BKN024 12/08 Q1017 RMK WIND 700FT 33010KT

More Conditions Fewer Conditions

Pressure 30.04 in
Visibility 6.2 miles
Clouds Few 1000 ft
Mostly Cloudy 2400 ft
Dew Point 46 °F
Humidity 77%
Rainfall 0.00 in
Snow Depth Not available.
UV 1 out of 12
Pollen Not available.
Air Quality Not available.
Flu Activity Not available.
METAR ENAT 040450Z 36008KT 9999 -DZ FEW010 BKN024 12/08 Q1017 RMK WIND 700FT 33010KT

More Conditions Fewer Conditions

10-Day Weather Forecast

×

Almanac

Astronomy

Aug. 04, 2015 Rise Set
Actual Time
Civil Twilight
Nautical Twilight
Astronomical Twilight
Moon
Length of Visible Light
Length of Day
Tomorrow will be .
, % of the Moon is Illuminated

Today's Extremes

Country Highs Country Lows

Community

WunderPhotos

Upload Photos

1,843,868 photos uploaded!

WunderBlogs® & News

Nearby

Air Quality

  Air Quality AQ Index Pollutant
Not available.

Snow Depth

Station Depth Elevation

Earthquake Activity

City Distance Mag. Time & Date
Minimum magnitude displayed is 2.5.

Coastal Water Temperatures

Place Temperature

Stations

Nearby Weather Stations

Station Location Temp. Windchill Dew Point Humidity Wind Precip. Elev Updated Type